Paracuru, Brazil
Current Conditions -  °F | °C
As of 7:00 AM on Saturday 25 Oct 2014 (Local Time) from SBFZ Reporting Station
Broken Clouds Broken Clouds  
Wind Chill: 81°   Ceiling: 2000
Heat Index: 83°   Visibility: 6mi
Dew Point: 66°   Wind: 22mph
Humidity: 61%   Direction: 110°ESE
Pressure: 29.88"   Gusts: NA
Location:  3.41°S, 39.03°W
Report Text: SBFZ 251000Z 11019KT 9999 BKN020 27/19 Q1012
Loading
Personal Weather Stations






























Interactive Weather Map
Tropical Storm Tracking
New forecast layout! Learn more

10-Day Weather Forecast

Advertisements
Track Severe Weather on mobile